sensor_id;sensor_type;location;lat;lon;timestamp;temperature;humidity
68139;DHT22;54940;50.842;4.410;2022-10-28T00:01:02;18.50;99.90
68139;DHT22;54940;50.842;4.410;2022-10-28T00:03:28;18.40;99.90
68139;DHT22;54940;50.842;4.410;2022-10-28T00:05:54;18.40;99.90
68139;DHT22;54940;50.842;4.410;2022-10-28T00:08:25;18.30;99.90
68139;DHT22;54940;50.842;4.410;2022-10-28T00:10:50;18.30;99.90
68139;DHT22;54940;50.842;4.410;2022-10-28T00:13:19;18.30;99.90
68139;DHT22;54940;50.842;4.410;2022-10-28T00:15:44;18.30;99.90
68139;DHT22;54940;50.842;4.410;2022-10-28T00:18:10;18.20;99.90
68139;DHT22;54940;50.842;4.410;2022-10-28T00:20:36;18.30;99.90
68139;DHT22;54940;50.842;4.410;2022-10-28T00:23:01;18.20;99.90
68139;DHT22;54940;50.842;4.410;2022-10-28T00:25:27;18.20;99.90
68139;DHT22;54940;50.842;4.410;2022-10-28T00:27:52;18.20;99.90
68139;DHT22;54940;50.842;4.410;2022-10-28T00:30:18;18.20;99.90
68139;DHT22;54940;50.842;4.410;2022-10-28T00:32:44;18.20;99.90
68139;DHT22;54940;50.842;4.410;2022-10-28T00:35:09;18.20;99.90
68139;DHT22;54940;50.842;4.410;2022-10-28T00:37:35;18.10;99.90
68139;DHT22;54940;50.842;4.410;2022-10-28T00:40:00;18.10;99.90
68139;DHT22;54940;50.842;4.410;2022-10-28T00:42:26;18.10;99.90
68139;DHT22;54940;50.842;4.410;2022-10-28T00:44:58;18.00;99.90
68139;DHT22;54940;50.842;4.410;2022-10-28T00:47:44;18.00;99.90
68139;DHT22;54940;50.842;4.410;2022-10-28T00:53:04;18.00;99.90
68139;DHT22;54940;50.842;4.410;2022-10-28T00:55:31;17.90;99.90
68139;DHT22;54940;50.842;4.410;2022-10-28T00:57:58;17.80;99.90
68139;DHT22;54940;50.842;4.410;2022-10-28T01:00:25;17.80;99.90
68139;DHT22;54940;50.842;4.410;2022-10-28T01:02:51;17.80;99.90
68139;DHT22;54940;50.842;4.410;2022-10-28T01:05:20;17.80;99.90
68139;DHT22;54940;50.842;4.410;2022-10-28T01:07:47;17.80;99.90
68139;DHT22;54940;50.842;4.410;2022-10-28T01:10:14;17.80;99.90
68139;DHT22;54940;50.842;4.410;2022-10-28T01:13:03;17.80;99.90
68139;DHT22;54940;50.842;4.410;2022-10-28T01:15:51;17.80;99.90
68139;DHT22;54940;50.842;4.410;2022-10-28T01:18:25;17.80;99.90
68139;DHT22;54940;50.842;4.410;2022-10-28T01:24:00;17.80;99.90
68139;DHT22;54940;50.842;4.410;2022-10-28T01:35:03;17.70;99.90
68139;DHT22;54940;50.842;4.410;2022-10-28T01:37:34;17.80;99.90
68139;DHT22;54940;50.842;4.410;2022-10-28T01:42:41;17.80;99.90
68139;DHT22;54940;50.842;4.410;2022-10-28T01:45:17;17.80;99.90
68139;DHT22;54940;50.842;4.410;2022-10-28T01:47:50;17.70;99.90
68139;DHT22;54940;50.842;4.410;2022-10-28T01:53:06;17.70;99.90
68139;DHT22;54940;50.842;4.410;2022-10-28T01:55:37;17.70;99.90
68139;DHT22;54940;50.842;4.410;2022-10-28T01:58:05;17.70;99.90
68139;DHT22;54940;50.842;4.410;2022-10-28T02:00:32;17.70;99.90
68139;DHT22;54940;50.842;4.410;2022-10-28T02:02:58;17.70;99.90
68139;DHT22;54940;50.842;4.410;2022-10-28T02:05:45;17.70;99.90
68139;DHT22;54940;50.842;4.410;2022-10-28T02:13:43;17.80;99.90
68139;DHT22;54940;50.842;4.410;2022-10-28T02:16:30;17.90;99.90
68139;DHT22;54940;50.842;4.410;2022-10-28T02:19:08;18.00;99.90
68139;DHT22;54940;50.842;4.410;2022-10-28T02:21:54;17.90;99.90
68139;DHT22;54940;50.842;4.410;2022-10-28T02:24:44;18.10;99.90
68139;DHT22;54940;50.842;4.410;2022-10-28T02:27:39;18.00;99.90
68139;DHT22;54940;50.842;4.410;2022-10-28T02:30:08;17.90;99.90
68139;DHT22;54940;50.842;4.410;2022-10-28T02:32:43;17.90;99.90
68139;DHT22;54940;50.842;4.410;2022-10-28T02:35:16;17.90;99.90
68139;DHT22;54940;50.842;4.410;2022-10-28T02:37:45;17.80;99.90
68139;DHT22;54940;50.842;4.410;2022-10-28T02:40:16;17.80;99.90
68139;DHT22;54940;50.842;4.410;2022-10-28T02:42:48;17.80;99.90
68139;DHT22;54940;50.842;4.410;2022-10-28T02:45:17;17.90;99.90
68139;DHT22;54940;50.842;4.410;2022-10-28T02:47:58;17.80;99.90
68139;DHT22;54940;50.842;4.410;2022-10-28T02:50:31;17.90;99.90
68139;DHT22;54940;50.842;4.410;2022-10-28T02:52:59;17.90;99.90
68139;DHT22;54940;50.842;4.410;2022-10-28T02:55:34;17.90;99.90
68139;DHT22;54940;50.842;4.410;2022-10-28T02:58:01;17.80;99.90
68139;DHT22;54940;50.842;4.410;2022-10-28T03:00:26;17.80;99.90
68139;DHT22;54940;50.842;4.410;2022-10-28T03:02:52;17.80;99.90
68139;DHT22;54940;50.842;4.410;2022-10-28T03:05:18;17.80;99.90
68139;DHT22;54940;50.842;4.410;2022-10-28T03:07:44;17.90;99.90
68139;DHT22;54940;50.842;4.410;2022-10-28T03:10:10;17.80;99.90
68139;DHT22;54940;50.842;4.410;2022-10-28T03:12:35;17.90;99.90
68139;DHT22;54940;50.842;4.410;2022-10-28T03:15:01;17.70;99.90
68139;DHT22;54940;50.842;4.410;2022-10-28T03:17:28;17.80;99.90
68139;DHT22;54940;50.842;4.410;2022-10-28T03:19:53;17.80;99.90
68139;DHT22;54940;50.842;4.410;2022-10-28T03:22:19;17.80;99.90
68139;DHT22;54940;50.842;4.410;2022-10-28T03:24:45;17.80;99.90
68139;DHT22;54940;50.842;4.410;2022-10-28T03:27:10;17.70;99.90
68139;DHT22;54940;50.842;4.410;2022-10-28T03:29:36;17.80;99.90
68139;DHT22;54940;50.842;4.410;2022-10-28T03:32:02;17.80;99.90
68139;DHT22;54940;50.842;4.410;2022-10-28T03:34:27;17.80;99.90
68139;DHT22;54940;50.842;4.410;2022-10-28T03:36:53;17.80;99.90
68139;DHT22;54940;50.842;4.410;2022-10-28T03:39:19;17.80;99.90
68139;DHT22;54940;50.842;4.410;2022-10-28T03:41:44;17.80;99.90
68139;DHT22;54940;50.842;4.410;2022-10-28T03:44:10;17.70;99.90
68139;DHT22;54940;50.842;4.410;2022-10-28T03:46:36;17.70;99.90
68139;DHT22;54940;50.842;4.410;2022-10-28T03:49:03;17.70;99.90
68139;DHT22;54940;50.842;4.410;2022-10-28T03:51:28;17.70;99.90
68139;DHT22;54940;50.842;4.410;2022-10-28T03:53:54;17.70;99.90
68139;DHT22;54940;50.842;4.410;2022-10-28T03:56:20;17.80;99.90
68139;DHT22;54940;50.842;4.410;2022-10-28T03:58:49;17.80;99.90
68139;DHT22;54940;50.842;4.410;2022-10-28T04:01:15;17.70;99.90
68139;DHT22;54940;50.842;4.410;2022-10-28T04:03:41;17.70;99.90
68139;DHT22;54940;50.842;4.410;2022-10-28T04:06:06;17.70;99.90
68139;DHT22;54940;50.842;4.410;2022-10-28T04:08:34;17.70;99.90
68139;DHT22;54940;50.842;4.410;2022-10-28T04:11:00;17.70;99.90
68139;DHT22;54940;50.842;4.410;2022-10-28T04:13:25;17.70;99.90
68139;DHT22;54940;50.842;4.410;2022-10-28T04:15:51;17.70;99.90
68139;DHT22;54940;50.842;4.410;2022-10-28T04:18:17;17.70;99.90
68139;DHT22;54940;50.842;4.410;2022-10-28T04:20:44;17.60;99.90
68139;DHT22;54940;50.842;4.410;2022-10-28T04:23:14;17.70;99.90
68139;DHT22;54940;50.842;4.410;2022-10-28T04:25:40;17.60;99.90
68139;DHT22;54940;50.842;4.410;2022-10-28T04:28:05;17.60;99.90
68139;DHT22;54940;50.842;4.410;2022-10-28T04:30:31;17.60;99.90
68139;DHT22;54940;50.842;4.410;2022-10-28T04:32:57;17.60;99.90
68139;DHT22;54940;50.842;4.410;2022-10-28T04:35:23;17.50;99.90
68139;DHT22;54940;50.842;4.410;2022-10-28T04:37:48;17.40;99.90
68139;DHT22;54940;50.842;4.410;2022-10-28T04:40:14;17.50;99.90
68139;DHT22;54940;50.842;4.410;2022-10-28T04:42:40;17.50;99.90
68139;DHT22;54940;50.842;4.410;2022-10-28T04:45:06;17.50;99.90
68139;DHT22;54940;50.842;4.410;2022-10-28T04:47:32;17.50;99.90
68139;DHT22;54940;50.842;4.410;2022-10-28T04:49:57;17.50;99.90
68139;DHT22;54940;50.842;4.410;2022-10-28T04:52:23;17.50;99.90
68139;DHT22;54940;50.842;4.410;2022-10-28T04:54:48;17.50;99.90
68139;DHT22;54940;50.842;4.410;2022-10-28T04:57:14;17.50;99.90
68139;DHT22;54940;50.842;4.410;2022-10-28T04:59:40;17.50;99.90
68139;DHT22;54940;50.842;4.410;2022-10-28T05:02:05;17.50;99.90
68139;DHT22;54940;50.842;4.410;2022-10-28T05:04:31;17.50;99.90
68139;DHT22;54940;50.842;4.410;2022-10-28T05:06:56;17.50;99.90
68139;DHT22;54940;50.842;4.410;2022-10-28T05:09:22;17.50;99.90
68139;DHT22;54940;50.842;4.410;2022-10-28T05:11:48;17.40;99.90
68139;DHT22;54940;50.842;4.410;2022-10-28T05:14:13;17.50;99.90
68139;DHT22;54940;50.842;4.410;2022-10-28T05:16:39;17.50;99.90
68139;DHT22;54940;50.842;4.410;2022-10-28T05:19:05;17.50;99.90
68139;DHT22;54940;50.842;4.410;2022-10-28T05:21:30;17.60;99.90
68139;DHT22;54940;50.842;4.410;2022-10-28T05:23:56;17.60;99.90
68139;DHT22;54940;50.842;4.410;2022-10-28T05:26:22;17.60;99.90
68139;DHT22;54940;50.842;4.410;2022-10-28T05:28:48;17.70;99.90
68139;DHT22;54940;50.842;4.410;2022-10-28T05:31:15;17.60;99.90
68139;DHT22;54940;50.842;4.410;2022-10-28T05:33:40;17.70;99.90
68139;DHT22;54940;50.842;4.410;2022-10-28T05:36:06;17.60;99.90
68139;DHT22;54940;50.842;4.410;2022-10-28T05:38:32;17.60;99.90
68139;DHT22;54940;50.842;4.410;2022-10-28T05:40:58;17.60;99.90
68139;DHT22;54940;50.842;4.410;2022-10-28T05:43:23;17.50;99.90
68139;DHT22;54940;50.842;4.410;2022-10-28T05:45:53;17.50;99.90
68139;DHT22;54940;50.842;4.410;2022-10-28T05:48:20;17.40;99.90
68139;DHT22;54940;50.842;4.410;2022-10-28T05:50:45;17.40;99.90
68139;DHT22;54940;50.842;4.410;2022-10-28T05:53:11;17.40;99.90
68139;DHT22;54940;50.842;4.410;2022-10-28T05:55:37;17.50;99.90
68139;DHT22;54940;50.842;4.410;2022-10-28T05:58:02;17.40;99.90
68139;DHT22;54940;50.842;4.410;2022-10-28T06:00:28;17.40;99.90
68139;DHT22;54940;50.842;4.410;2022-10-28T06:03:04;17.30;99.90
68139;DHT22;54940;50.842;4.410;2022-10-28T06:05:34;17.30;99.90
68139;DHT22;54940;50.842;4.410;2022-10-28T06:08:00;17.30;99.90
68139;DHT22;54940;50.842;4.410;2022-10-28T06:10:26;17.30;99.90
68139;DHT22;54940;50.842;4.410;2022-10-28T06:12:54;17.30;99.90
68139;DHT22;54940;50.842;4.410;2022-10-28T06:15:20;17.20;99.90
68139;DHT22;54940;50.842;4.410;2022-10-28T06:17:48;17.20;99.90
68139;DHT22;54940;50.842;4.410;2022-10-28T06:20:15;17.20;99.90
68139;DHT22;54940;50.842;4.410;2022-10-28T06:22:51;17.20;99.90
68139;DHT22;54940;50.842;4.410;2022-10-28T06:25:18;17.30;99.90
68139;DHT22;54940;50.842;4.410;2022-10-28T06:27:44;17.30;99.90
68139;DHT22;54940;50.842;4.410;2022-10-28T06:30:11;17.30;99.90
68139;DHT22;54940;50.842;4.410;2022-10-28T06:32:37;17.20;99.90
68139;DHT22;54940;50.842;4.410;2022-10-28T06:35:03;17.10;99.90
68139;DHT22;54940;50.842;4.410;2022-10-28T06:37:28;17.10;99.90
68139;DHT22;54940;50.842;4.410;2022-10-28T06:39:54;17.10;99.90
68139;DHT22;54940;50.842;4.410;2022-10-28T06:42:20;17.10;99.90
68139;DHT22;54940;50.842;4.410;2022-10-28T06:44:46;17.20;99.90
68139;DHT22;54940;50.842;4.410;2022-10-28T06:47:11;17.20;99.90
68139;DHT22;54940;50.842;4.410;2022-10-28T06:49:37;17.30;99.90
68139;DHT22;54940;50.842;4.410;2022-10-28T06:52:03;17.30;99.90
68139;DHT22;54940;50.842;4.410;2022-10-28T06:54:28;17.30;99.90
68139;DHT22;54940;50.842;4.410;2022-10-28T06:56:54;17.30;99.90
68139;DHT22;54940;50.842;4.410;2022-10-28T06:59:19;17.30;99.90
68139;DHT22;54940;50.842;4.410;2022-10-28T07:01:45;17.30;99.90
68139;DHT22;54940;50.842;4.410;2022-10-28T07:04:11;17.30;99.90
68139;DHT22;54940;50.842;4.410;2022-10-28T07:06:38;17.30;99.90
68139;DHT22;54940;50.842;4.410;2022-10-28T07:09:04;17.40;99.90
68139;DHT22;54940;50.842;4.410;2022-10-28T07:11:30;17.40;99.90
68139;DHT22;54940;50.842;4.410;2022-10-28T07:13:55;17.50;99.90
68139;DHT22;54940;50.842;4.410;2022-10-28T07:16:23;17.60;99.90
68139;DHT22;54940;50.842;4.410;2022-10-28T07:18:48;17.50;99.90
68139;DHT22;54940;50.842;4.410;2022-10-28T07:21:14;17.60;99.90
68139;DHT22;54940;50.842;4.410;2022-10-28T07:23:42;17.60;99.90
68139;DHT22;54940;50.842;4.410;2022-10-28T07:26:08;17.60;99.90
68139;DHT22;54940;50.842;4.410;2022-10-28T07:28:33;17.60;99.90
68139;DHT22;54940;50.842;4.410;2022-10-28T07:31:00;17.70;99.90
68139;DHT22;54940;50.842;4.410;2022-10-28T07:33:26;17.80;99.90
68139;DHT22;54940;50.842;4.410;2022-10-28T07:35:52;17.90;99.90
68139;DHT22;54940;50.842;4.410;2022-10-28T07:38:17;18.00;99.90
68139;DHT22;54940;50.842;4.410;2022-10-28T07:40:43;18.10;99.90
68139;DHT22;54940;50.842;4.410;2022-10-28T07:43:09;18.10;99.90
68139;DHT22;54940;50.842;4.410;2022-10-28T07:45:35;18.10;99.90
68139;DHT22;54940;50.842;4.410;2022-10-28T07:48:01;18.20;99.90
68139;DHT22;54940;50.842;4.410;2022-10-28T07:50:27;18.20;99.90
68139;DHT22;54940;50.842;4.410;2022-10-28T07:52:53;18.20;99.90
68139;DHT22;54940;50.842;4.410;2022-10-28T07:55:19;18.30;99.90
68139;DHT22;54940;50.842;4.410;2022-10-28T07:57:46;18.30;99.90
68139;DHT22;54940;50.842;4.410;2022-10-28T08:00:12;18.40;99.90
68139;DHT22;54940;50.842;4.410;2022-10-28T08:02:38;18.40;99.90
68139;DHT22;54940;50.842;4.410;2022-10-28T08:05:04;18.60;99.90
68139;DHT22;54940;50.842;4.410;2022-10-28T08:07:30;18.70;99.90
68139;DHT22;54940;50.842;4.410;2022-10-28T08:09:57;18.70;99.90
68139;DHT22;54940;50.842;4.410;2022-10-28T08:12:22;18.60;99.90
68139;DHT22;54940;50.842;4.410;2022-10-28T08:14:48;18.70;99.90
68139;DHT22;54940;50.842;4.410;2022-10-28T08:17:14;18.80;99.90
68139;DHT22;54940;50.842;4.410;2022-10-28T08:19:40;18.80;99.90
68139;DHT22;54940;50.842;4.410;2022-10-28T08:22:06;18.80;99.90
68139;DHT22;54940;50.842;4.410;2022-10-28T08:24:32;18.80;99.90
68139;DHT22;54940;50.842;4.410;2022-10-28T08:26:57;18.80;99.90
68139;DHT22;54940;50.842;4.410;2022-10-28T08:29:23;18.80;99.90
68139;DHT22;54940;50.842;4.410;2022-10-28T08:31:49;18.70;99.90
68139;DHT22;54940;50.842;4.410;2022-10-28T08:34:14;18.80;99.90
68139;DHT22;54940;50.842;4.410;2022-10-28T08:36:40;18.90;99.90
68139;DHT22;54940;50.842;4.410;2022-10-28T08:39:05;18.90;99.90
68139;DHT22;54940;50.842;4.410;2022-10-28T08:41:53;19.00;99.90
68139;DHT22;54940;50.842;4.410;2022-10-28T08:44:47;19.10;99.90
68139;DHT22;54940;50.842;4.410;2022-10-28T08:50:12;19.00;99.90
68139;DHT22;54940;50.842;4.410;2022-10-28T08:55:30;19.00;99.90
68139;DHT22;54940;50.842;4.410;2022-10-28T08:58:10;19.00;99.90
68139;DHT22;54940;50.842;4.410;2022-10-28T09:00:38;18.90;99.90
68139;DHT22;54940;50.842;4.410;2022-10-28T09:05:36;19.00;99.90
68139;DHT22;54940;50.842;4.410;2022-10-28T09:08:03;19.10;99.90
68139;DHT22;54940;50.842;4.410;2022-10-28T09:18:57;19.20;99.90
68139;DHT22;54940;50.842;4.410;2022-10-28T09:23:57;19.30;99.90
68139;DHT22;54940;50.842;4.410;2022-10-28T09:29:24;19.50;99.90
68139;DHT22;54940;50.842;4.410;2022-10-28T09:32:11;19.50;99.90
68139;DHT22;54940;50.842;4.410;2022-10-28T09:34:46;19.50;99.90
68139;DHT22;54940;50.842;4.410;2022-10-28T09:37:23;19.70;99.90
68139;DHT22;54940;50.842;4.410;2022-10-28T09:39:56;19.70;99.90
68139;DHT22;54940;50.842;4.410;2022-10-28T09:42:31;19.80;99.90
68139;DHT22;54940;50.842;4.410;2022-10-28T09:45:05;19.80;99.90
68139;DHT22;54940;50.842;4.410;2022-10-28T09:47:56;20.00;99.90
68139;DHT22;54940;50.842;4.410;2022-10-28T09:50:29;20.10;99.90
68139;DHT22;54940;50.842;4.410;2022-10-28T09:55:26;20.30;99.90
68139;DHT22;54940;50.842;4.410;2022-10-28T09:57:51;20.40;99.90
68139;DHT22;54940;50.842;4.410;2022-10-28T10:00:17;20.50;99.90
68139;DHT22;54940;50.842;4.410;2022-10-28T10:02:43;20.50;99.90
68139;DHT22;54940;50.842;4.410;2022-10-28T10:05:12;20.60;99.90
68139;DHT22;54940;50.842;4.410;2022-10-28T10:07:40;20.60;99.90
68139;DHT22;54940;50.842;4.410;2022-10-28T10:10:16;20.50;99.90
68139;DHT22;54940;50.842;4.410;2022-10-28T10:12:48;20.70;99.90
68139;DHT22;54940;50.842;4.410;2022-10-28T10:15:49;20.80;99.90
68139;DHT22;54940;50.842;4.410;2022-10-28T10:18:20;20.90;99.90
68139;DHT22;54940;50.842;4.410;2022-10-28T10:20:52;20.90;99.90
68139;DHT22;54940;50.842;4.410;2022-10-28T10:23:26;21.00;99.90
68139;DHT22;54940;50.842;4.410;2022-10-28T10:25:54;21.10;99.90
68139;DHT22;54940;50.842;4.410;2022-10-28T10:28:20;21.20;99.90
68139;DHT22;54940;50.842;4.410;2022-10-28T10:30:54;21.30;99.90
68139;DHT22;54940;50.842;4.410;2022-10-28T10:33:37;21.40;99.90
68139;DHT22;54940;50.842;4.410;2022-10-28T10:36:12;21.50;99.90
68139;DHT22;54940;50.842;4.410;2022-10-28T10:38:47;21.70;99.90
68139;DHT22;54940;50.842;4.410;2022-10-28T10:41:32;21.60;99.90
68139;DHT22;54940;50.842;4.410;2022-10-28T10:43:59;21.50;99.90
68139;DHT22;54940;50.842;4.410;2022-10-28T10:46:24;21.40;99.90
68139;DHT22;54940;50.842;4.410;2022-10-28T10:49:09;21.50;99.90
68139;DHT22;54940;50.842;4.410;2022-10-28T10:51:36;21.50;99.90
68139;DHT22;54940;50.842;4.410;2022-10-28T10:54:02;21.60;99.90
68139;DHT22;54940;50.842;4.410;2022-10-28T10:56:29;21.60;99.90
68139;DHT22;54940;50.842;4.410;2022-10-28T10:58:58;21.60;99.90
68139;DHT22;54940;50.842;4.410;2022-10-28T11:01:33;21.70;99.90
68139;DHT22;54940;50.842;4.410;2022-10-28T11:04:07;21.60;99.90
68139;DHT22;54940;50.842;4.410;2022-10-28T11:06:42;21.60;99.90
68139;DHT22;54940;50.842;4.410;2022-10-28T11:09:30;21.60;99.90
68139;DHT22;54940;50.842;4.410;2022-10-28T11:11:58;21.60;99.90
68139;DHT22;54940;50.842;4.410;2022-10-28T11:16:52;21.70;99.90
68139;DHT22;54940;50.842;4.410;2022-10-28T11:27:50;21.90;99.90
68139;DHT22;54940;50.842;4.410;2022-10-28T11:30:23;21.90;99.90
68139;DHT22;54940;50.842;4.410;2022-10-28T11:35:53;22.00;99.90
68139;DHT22;54940;50.842;4.410;2022-10-28T11:43:53;22.20;99.90
68139;DHT22;54940;50.842;4.410;2022-10-28T11:57:58;22.50;99.90
68139;DHT22;54940;50.842;4.410;2022-10-28T12:09:08;22.30;99.90
68139;DHT22;54940;50.842;4.410;2022-10-28T12:17:18;22.10;99.90
68139;DHT22;54940;50.842;4.410;2022-10-28T12:20:02;22.10;99.90
68139;DHT22;54940;50.842;4.410;2022-10-28T12:22:35;22.00;99.90
68139;DHT22;54940;50.842;4.410;2022-10-28T12:25:11;22.00;99.90
68139;DHT22;54940;50.842;4.410;2022-10-28T12:27:41;21.90;99.90
68139;DHT22;54940;50.842;4.410;2022-10-28T12:30:29;21.70;99.90
68139;DHT22;54940;50.842;4.410;2022-10-28T12:38:54;21.90;99.90
68139;DHT22;54940;50.842;4.410;2022-10-28T12:41:26;21.90;99.90
68139;DHT22;54940;50.842;4.410;2022-10-28T12:44:07;22.00;99.90
68139;DHT22;54940;50.842;4.410;2022-10-28T12:51:50;22.00;99.90
68139;DHT22;54940;50.842;4.410;2022-10-28T12:54:24;21.90;99.90
68139;DHT22;54940;50.842;4.410;2022-10-28T12:56:55;21.90;99.90
68139;DHT22;54940;50.842;4.410;2022-10-28T12:59:33;21.90;99.90
68139;DHT22;54940;50.842;4.410;2022-10-28T13:02:00;22.00;99.90
68139;DHT22;54940;50.842;4.410;2022-10-28T13:04:27;22.00;99.90
68139;DHT22;54940;50.842;4.410;2022-10-28T13:12:33;22.00;99.90
68139;DHT22;54940;50.842;4.410;2022-10-28T13:15:20;22.00;99.90
68139;DHT22;54940;50.842;4.410;2022-10-28T13:25:29;22.10;99.90
68139;DHT22;54940;50.842;4.410;2022-10-28T13:28:00;22.00;99.90
68139;DHT22;54940;50.842;4.410;2022-10-28T13:30:26;21.90;99.90
68139;DHT22;54940;50.842;4.410;2022-10-28T13:35:27;21.90;99.90
68139;DHT22;54940;50.842;4.410;2022-10-28T13:37:54;21.90;99.90
68139;DHT22;54940;50.842;4.410;2022-10-28T13:43:16;21.80;99.90
68139;DHT22;54940;50.842;4.410;2022-10-28T13:45:52;21.80;99.90
68139;DHT22;54940;50.842;4.410;2022-10-28T13:48:45;21.90;99.90
68139;DHT22;54940;50.842;4.410;2022-10-28T13:53:52;21.80;99.90
68139;DHT22;54940;50.842;4.410;2022-10-28T13:56:35;21.90;99.90
68139;DHT22;54940;50.842;4.410;2022-10-28T13:59:25;21.90;99.90
68139;DHT22;54940;50.842;4.410;2022-10-28T14:01:52;21.90;99.90
68139;DHT22;54940;50.842;4.410;2022-10-28T14:06:47;22.00;99.90
68139;DHT22;54940;50.842;4.410;2022-10-28T14:09:29;22.00;99.90
68139;DHT22;54940;50.842;4.410;2022-10-28T14:12:27;22.00;99.90
68139;DHT22;54940;50.842;4.410;2022-10-28T14:15:02;22.10;99.90
68139;DHT22;54940;50.842;4.410;2022-10-28T14:17:39;22.10;99.90
68139;DHT22;54940;50.842;4.410;2022-10-28T14:20:37;22.10;99.90
68139;DHT22;54940;50.842;4.410;2022-10-28T14:44:45;21.90;99.90
68139;DHT22;54940;50.842;4.410;2022-10-28T14:52:23;22.10;99.90
68139;DHT22;54940;50.842;4.410;2022-10-28T14:54:51;21.90;99.90
68139;DHT22;54940;50.842;4.410;2022-10-28T14:57:29;22.00;99.90
68139;DHT22;54940;50.842;4.410;2022-10-28T14:59:55;22.00;99.90
68139;DHT22;54940;50.842;4.410;2022-10-28T15:02:29;22.00;99.90
68139;DHT22;54940;50.842;4.410;2022-10-28T15:07:42;21.70;99.90
68139;DHT22;54940;50.842;4.410;2022-10-28T15:10:27;21.70;99.90
68139;DHT22;54940;50.842;4.410;2022-10-28T15:12:54;21.80;99.90
68139;DHT22;54940;50.842;4.410;2022-10-28T15:15:26;21.80;99.90
68139;DHT22;54940;50.842;4.410;2022-10-28T15:17:53;21.70;99.90
68139;DHT22;54940;50.842;4.410;2022-10-28T15:20:31;21.70;99.90
68139;DHT22;54940;50.842;4.410;2022-10-28T15:23:20;21.70;99.90
68139;DHT22;54940;50.842;4.410;2022-10-28T15:26:15;21.60;99.90
68139;DHT22;54940;50.842;4.410;2022-10-28T15:28:41;21.50;99.90
68139;DHT22;54940;50.842;4.410;2022-10-28T15:31:07;21.40;99.90
68139;DHT22;54940;50.842;4.410;2022-10-28T15:33:39;21.40;99.90
68139;DHT22;54940;50.842;4.410;2022-10-28T15:36:18;21.40;99.90
68139;DHT22;54940;50.842;4.410;2022-10-28T15:38:46;21.30;99.90
68139;DHT22;54940;50.842;4.410;2022-10-28T15:41:41;21.30;99.90
68139;DHT22;54940;50.842;4.410;2022-10-28T15:44:30;21.30;99.90
68139;DHT22;54940;50.842;4.410;2022-10-28T15:46:57;21.40;99.90
68139;DHT22;54940;50.842;4.410;2022-10-28T15:49:39;21.30;99.90
68139;DHT22;54940;50.842;4.410;2022-10-28T15:54:55;21.20;99.90
68139;DHT22;54940;50.842;4.410;2022-10-28T15:57:30;21.10;99.90
68139;DHT22;54940;50.842;4.410;2022-10-28T16:00:20;21.10;99.90
68139;DHT22;54940;50.842;4.410;2022-10-28T16:02:53;21.20;99.90
68139;DHT22;54940;50.842;4.410;2022-10-28T16:08:06;21.20;99.90
68139;DHT22;54940;50.842;4.410;2022-10-28T16:10:41;21.00;99.90
68139;DHT22;54940;50.842;4.410;2022-10-28T16:13:20;21.00;99.90
68139;DHT22;54940;50.842;4.410;2022-10-28T16:15:56;21.00;99.90
68139;DHT22;54940;50.842;4.410;2022-10-28T16:18:24;20.90;99.90
68139;DHT22;54940;50.842;4.410;2022-10-28T16:20:51;20.90;99.90
68139;DHT22;54940;50.842;4.410;2022-10-28T16:23:19;20.90;99.90
68139;DHT22;54940;50.842;4.410;2022-10-28T16:25:46;20.90;99.90
68139;DHT22;54940;50.842;4.410;2022-10-28T16:28:24;20.90;99.90
68139;DHT22;54940;50.842;4.410;2022-10-28T16:30:54;20.80;99.90
68139;DHT22;54940;50.842;4.410;2022-10-28T16:33:26;20.80;99.90
68139;DHT22;54940;50.842;4.410;2022-10-28T16:35:53;20.70;99.90
68139;DHT22;54940;50.842;4.410;2022-10-28T16:38:19;20.70;99.90
68139;DHT22;54940;50.842;4.410;2022-10-28T16:40:44;20.60;99.90
68139;DHT22;54940;50.842;4.410;2022-10-28T16:43:18;20.60;99.90
68139;DHT22;54940;50.842;4.410;2022-10-28T16:45:45;20.60;99.90
68139;DHT22;54940;50.842;4.410;2022-10-28T16:48:12;20.50;99.90
68139;DHT22;54940;50.842;4.410;2022-10-28T16:50:40;20.50;99.90
68139;DHT22;54940;50.842;4.410;2022-10-28T16:53:10;20.50;99.90
68139;DHT22;54940;50.842;4.410;2022-10-28T16:55:36;20.40;99.90
68139;DHT22;54940;50.842;4.410;2022-10-28T16:58:01;20.40;99.90
68139;DHT22;54940;50.842;4.410;2022-10-28T17:00:27;20.40;99.90
68139;DHT22;54940;50.842;4.410;2022-10-28T17:02:53;20.40;99.90
68139;DHT22;54940;50.842;4.410;2022-10-28T17:05:21;20.30;99.90
68139;DHT22;54940;50.842;4.410;2022-10-28T17:07:47;20.30;99.90
68139;DHT22;54940;50.842;4.410;2022-10-28T17:10:13;20.20;99.90
68139;DHT22;54940;50.842;4.410;2022-10-28T17:12:39;20.20;99.90
68139;DHT22;54940;50.842;4.410;2022-10-28T17:15:05;20.20;99.90
68139;DHT22;54940;50.842;4.410;2022-10-28T17:17:31;20.20;99.90
68139;DHT22;54940;50.842;4.410;2022-10-28T17:19:57;20.20;99.90
68139;DHT22;54940;50.842;4.410;2022-10-28T17:22:22;20.20;99.90
68139;DHT22;54940;50.842;4.410;2022-10-28T17:24:48;20.20;99.90
68139;DHT22;54940;50.842;4.410;2022-10-28T17:27:14;20.10;99.90
68139;DHT22;54940;50.842;4.410;2022-10-28T17:29:39;20.10;99.90
68139;DHT22;54940;50.842;4.410;2022-10-28T17:32:05;20.00;99.90
68139;DHT22;54940;50.842;4.410;2022-10-28T17:34:34;20.00;99.90
68139;DHT22;54940;50.842;4.410;2022-10-28T17:37:00;20.10;99.90
68139;DHT22;54940;50.842;4.410;2022-10-28T17:39:28;20.00;99.90
68139;DHT22;54940;50.842;4.410;2022-10-28T17:41:54;20.00;99.90
68139;DHT22;54940;50.842;4.410;2022-10-28T17:44:20;19.90;99.90
68139;DHT22;54940;50.842;4.410;2022-10-28T17:46:50;19.80;99.90
68139;DHT22;54940;50.842;4.410;2022-10-28T17:49:16;19.80;99.90
68139;DHT22;54940;50.842;4.410;2022-10-28T17:51:42;19.80;99.90
68139;DHT22;54940;50.842;4.410;2022-10-28T17:54:08;19.70;99.90
68139;DHT22;54940;50.842;4.410;2022-10-28T17:56:35;19.80;99.90
68139;DHT22;54940;50.842;4.410;2022-10-28T17:59:00;19.80;99.90
68139;DHT22;54940;50.842;4.410;2022-10-28T18:01:30;19.80;99.90
68139;DHT22;54940;50.842;4.410;2022-10-28T18:03:56;19.70;99.90
68139;DHT22;54940;50.842;4.410;2022-10-28T18:06:23;19.70;99.90
68139;DHT22;54940;50.842;4.410;2022-10-28T18:08:49;19.60;99.90
68139;DHT22;54940;50.842;4.410;2022-10-28T18:11:16;19.50;99.90
68139;DHT22;54940;50.842;4.410;2022-10-28T18:13:44;19.50;99.90
68139;DHT22;54940;50.842;4.410;2022-10-28T18:16:12;19.60;99.90
68139;DHT22;54940;50.842;4.410;2022-10-28T18:18:39;19.60;99.90
68139;DHT22;54940;50.842;4.410;2022-10-28T18:21:05;19.50;99.90
68139;DHT22;54940;50.842;4.410;2022-10-28T18:23:31;19.40;99.90
68139;DHT22;54940;50.842;4.410;2022-10-28T18:25:57;19.40;99.90
68139;DHT22;54940;50.842;4.410;2022-10-28T18:28:24;19.40;99.90
68139;DHT22;54940;50.842;4.410;2022-10-28T18:30:50;19.40;99.90